createdAt,value
2023-02-14T00:00:02.797Z,72.51
2023-02-14T00:05:11.115Z,72.75
2023-02-14T00:10:15.222Z,73.05
2023-02-14T00:15:24.928Z,73.33
2023-02-14T00:20:28.595Z,73.42
2023-02-14T00:25:34.600Z,73.63
2023-02-14T00:30:37.399Z,73.81
2023-02-14T00:35:40.935Z,73.91
2023-02-14T00:40:45.089Z,73.40
2023-02-14T00:45:48.018Z,74.19
2023-02-14T00:50:50.857Z,74.10
2023-02-14T00:55:54.933Z,74.12
2023-02-14T01:00:58.222Z,74.09
2023-02-14T01:06:01.517Z,74.25
2023-02-14T01:11:13.426Z,74.46
2023-02-14T01:16:18.264Z,74.95
2023-02-14T01:21:23.693Z,75.57
2023-02-14T01:26:28.765Z,75.93
2023-02-14T01:31:33.403Z,76.50
2023-02-14T01:36:38.688Z,76.58
2023-02-14T01:41:44.416Z,76.21
2023-02-14T01:46:47.596Z,76.53
2023-02-14T01:51:53.900Z,76.49
2023-02-14T01:57:01.700Z,76.52
2023-02-14T02:02:05.866Z,77.15
2023-02-14T02:07:13.439Z,77.65
2023-02-14T02:12:17.610Z,77.70
2023-02-14T02:17:30.876Z,77.78
2023-02-14T02:23:12.284Z,77.84
2023-02-14T02:28:50.285Z,77.86
2023-02-14T02:34:21.864Z,77.65
2023-02-14T02:39:40.984Z,77.48
2023-02-14T02:44:51.799Z,77.20
2023-02-14T02:50:18.230Z,77.06
2023-02-14T02:55:29.370Z,76.50
2023-02-14T03:00:32.896Z,75.92
2023-02-14T03:05:36.765Z,75.65
2023-02-14T03:10:42.666Z,75.35
2023-02-14T03:15:58.301Z,74.95
2023-02-14T03:21:13.231Z,74.90
2023-02-14T03:26:19.686Z,75.07
2023-02-14T03:31:31.923Z,75.29
2023-02-14T03:36:43.062Z,74.65
2023-02-14T03:41:51.850Z,74.49
2023-02-14T03:46:59.734Z,74.37
2023-02-14T03:52:05.218Z,73.44
2023-02-14T03:57:18.762Z,73.81
2023-02-14T04:02:26.171Z,73.48
2023-02-14T04:07:28.968Z,73.85
2023-02-14T04:12:38.062Z,73.90
2023-02-14T04:17:58.722Z,74.05
2023-02-14T04:23:03.463Z,73.96
2023-02-14T04:28:07.882Z,74.48
2023-02-14T04:33:10.707Z,74.79
2023-02-14T04:38:13.578Z,74.45
2023-02-14T04:43:17.732Z,74.15
2023-02-14T04:48:20.583Z,74.42
2023-02-14T04:53:23.574Z,73.88
2023-02-14T04:58:27.741Z,72.64
2023-02-14T05:03:30.608Z,71.50
2023-02-14T05:08:33.357Z,71.89
2023-02-14T05:13:37.490Z,72.27
2023-02-14T05:18:40.394Z,72.50
2023-02-14T05:23:43.230Z,72.59
2023-02-14T05:28:47.493Z,72.31
2023-02-14T05:33:50.320Z,73.04
2023-02-14T05:38:53.127Z,72.49
2023-02-14T05:43:57.270Z,72.66
2023-02-14T05:49:00.338Z,73.05
2023-02-14T05:54:03.161Z,73.30
2023-02-14T05:59:07.292Z,72.89
2023-02-14T06:04:10.032Z,72.37
2023-02-14T06:09:12.996Z,71.71
2023-02-14T06:14:17.144Z,71.59
2023-02-14T06:19:20.281Z,71.63
2023-02-14T06:24:23.451Z,72.20
2023-02-14T06:29:27.994Z,72.12
2023-02-14T06:34:30.813Z,72.08
2023-02-14T06:39:33.560Z,72.49
2023-02-14T06:44:37.757Z,72.34
2023-02-14T06:49:40.519Z,72.10
2023-02-14T06:54:43.285Z,73.13
2023-02-14T06:59:47.547Z,73.03
2023-02-14T07:04:50.266Z,72.88
2023-02-14T07:09:52.995Z,73.06
2023-02-14T07:14:57.169Z,73.24
2023-02-14T07:19:59.996Z,72.76
2023-02-14T07:25:02.838Z,70.04
2023-02-14T07:30:10.285Z,67.05
2023-02-14T07:35:14.985Z,65.70
2023-02-14T07:40:18.393Z,65.16
2023-02-14T07:45:23.052Z,63.35
2023-02-14T07:50:25.841Z,61.60
2023-02-14T07:55:28.616Z,61.37
2023-02-14T08:00:32.843Z,63.00
2023-02-14T08:05:36.599Z,62.08
2023-02-14T08:10:39.359Z,61.47
2023-02-14T08:16:01.231Z,62.17
2023-02-14T08:21:05.318Z,61.66
2023-02-14T08:26:08.511Z,60.69
2023-02-14T08:31:12.964Z,61.32
2023-02-14T08:36:17.729Z,61.11
2023-02-14T08:41:20.528Z,60.32
2023-02-14T08:46:25.139Z,59.02
2023-02-14T08:51:27.961Z,59.25
2023-02-14T08:56:30.733Z,58.22
2023-02-14T09:01:36.411Z,58.57
2023-02-14T09:06:39.886Z,57.42
2023-02-14T09:11:42.619Z,56.82
2023-02-14T09:16:46.796Z,56.27
2023-02-14T09:21:49.637Z,56.23
2023-02-14T09:26:52.410Z,54.98
2023-02-14T09:31:58.148Z,55.06
2023-02-14T09:37:18.761Z,52.94
2023-02-14T09:42:37.371Z,53.89
2023-02-14T09:47:47.025Z,53.30
2023-02-14T09:52:53.284Z,52.89
2023-02-14T09:58:07.370Z,52.63
2023-02-14T10:03:34.499Z,50.73
2023-02-14T10:08:51.249Z,50.32
2023-02-14T10:13:57.678Z,49.36
2023-02-14T10:19:04.950Z,49.05
2023-02-14T10:24:14.696Z,49.09
2023-02-14T10:29:19.676Z,48.41
2023-02-14T10:34:32.170Z,47.95
2023-02-14T10:39:51.289Z,47.61
2023-02-14T10:45:06.065Z,47.15
2023-02-14T10:50:19.104Z,46.88
2023-02-14T10:55:32.414Z,46.02
2023-02-14T11:00:38.828Z,44.97
2023-02-14T11:05:46.677Z,44.70
2023-02-14T11:10:50.147Z,41.46
2023-02-14T11:15:54.125Z,40.23
2023-02-14T11:21:07.682Z,39.32
2023-02-14T11:26:17.369Z,38.05
2023-02-14T11:31:32.321Z,37.93
2023-02-14T11:36:42.018Z,37.27
2023-02-14T11:41:49.680Z,38.64
2023-02-14T11:46:54.540Z,37.62
2023-02-14T11:52:01.482Z,37.70
2023-02-14T11:57:07.482Z,37.52
2023-02-14T12:02:25.271Z,36.66
2023-02-14T12:07:32.705Z,35.76
2023-02-14T12:12:36.803Z,35.28
2023-02-14T12:17:40.862Z,35.08
2023-02-14T12:28:30.741Z,34.74
2023-02-14T12:40:17.445Z,35.54
2023-02-14T12:45:24.757Z,36.64
2023-02-14T12:50:38.131Z,37.37
2023-02-14T12:55:53.108Z,37.31
2023-02-14T13:01:08.599Z,37.51
2023-02-14T13:06:19.665Z,37.19
2023-02-14T13:11:32.772Z,37.34
2023-02-14T13:16:45.163Z,37.45
2023-02-14T13:21:50.101Z,36.64
2023-02-14T13:26:57.723Z,36.04
2023-02-14T13:32:04.081Z,36.85
2023-02-14T13:37:11.399Z,35.91
2023-02-14T13:42:34.418Z,36.54
2023-02-14T13:47:38.604Z,36.58
2023-02-14T13:52:43.409Z,36.08
2023-02-14T13:57:46.340Z,36.93
2023-02-14T14:02:52.388Z,36.34
2023-02-14T14:08:18.673Z,37.18
2023-02-14T14:13:55.009Z,38.70
2023-02-14T14:19:01.373Z,38.88
2023-02-14T14:24:13.688Z,38.47
2023-02-14T14:29:21.474Z,39.04
2023-02-14T14:34:27.146Z,39.14
2023-02-14T14:39:32.187Z,39.63
2023-02-14T14:44:36.343Z,39.46
2023-02-14T14:49:40.423Z,39.46
2023-02-14T14:54:43.459Z,39.28
2023-02-14T14:59:49.230Z,40.01
2023-02-14T15:04:53.598Z,40.61
2023-02-14T15:09:56.305Z,41.28
2023-02-14T15:14:59.280Z,41.90
2023-02-14T15:20:08.030Z,42.39
2023-02-14T15:25:13.761Z,42.46
2023-02-14T15:30:26.400Z,42.25
2023-02-14T15:35:32.920Z,43.06
2023-02-14T15:40:38.710Z,44.24
2023-02-14T15:45:42.727Z,45.43
2023-02-14T15:50:50.924Z,45.99
2023-02-14T15:55:54.266Z,46.93
2023-02-14T16:00:57.505Z,47.79
2023-02-14T16:06:01.839Z,49.32
2023-02-14T16:11:09.727Z,50.02
2023-02-14T16:16:14.370Z,50.98
2023-02-14T16:21:23.587Z,51.68
2023-02-14T16:26:26.401Z,52.05
2023-02-14T16:31:29.603Z,52.63
2023-02-14T16:36:34.938Z,53.13
2023-02-14T16:41:37.912Z,53.53
2023-02-14T16:46:43.048Z,53.74
2023-02-14T16:51:48.622Z,54.07
2023-02-14T16:56:54.728Z,54.26
2023-02-14T17:01:58.486Z,54.67
2023-02-14T17:07:05.832Z,55.33
2023-02-14T17:12:13.270Z,55.60
2023-02-14T17:17:16.510Z,56.50
2023-02-14T17:22:21.056Z,57.71
2023-02-14T17:27:23.917Z,58.27
2023-02-14T17:32:26.824Z,59.22
2023-02-14T17:37:31.851Z,59.92
2023-02-14T17:42:35.453Z,60.90
2023-02-14T17:47:39.717Z,60.94
2023-02-14T17:52:43.945Z,61.08
2023-02-14T17:57:46.692Z,61.47
2023-02-14T18:02:49.642Z,61.77
2023-02-14T18:07:53.938Z,62.09
2023-02-14T18:12:56.713Z,62.42
2023-02-14T18:17:59.579Z,62.42
2023-02-14T18:23:07.160Z,62.63
2023-02-14T18:28:09.973Z,62.92
2023-02-14T18:33:12.824Z,63.02
2023-02-14T18:38:17.067Z,63.14
2023-02-14T18:43:19.887Z,63.54
2023-02-14T18:48:22.844Z,63.74
2023-02-14T18:53:26.990Z,63.40
2023-02-14T18:58:29.786Z,63.57
2023-02-14T19:03:32.580Z,63.61
2023-02-14T19:08:38.395Z,63.58
2023-02-14T19:13:45.643Z,63.42
2023-02-14T19:18:49.666Z,63.24
2023-02-14T19:23:56.484Z,63.01
2023-02-14T19:29:00.726Z,63.02
2023-02-14T19:34:04.675Z,63.23
2023-02-14T19:39:08.875Z,63.42
2023-02-14T19:44:13.779Z,63.42
2023-02-14T19:49:19.563Z,62.95
2023-02-14T19:54:25.586Z,62.50
2023-02-14T19:59:28.414Z,62.41
2023-02-14T20:04:31.475Z,62.58
2023-02-14T20:09:35.706Z,62.88
2023-02-14T20:14:50.987Z,63.32
2023-02-14T20:19:55.041Z,63.37
2023-02-14T20:24:59.334Z,63.29
2023-02-14T20:30:02.172Z,63.32
2023-02-14T20:35:05.222Z,63.40
2023-02-14T20:40:11.796Z,63.55
2023-02-14T20:45:14.602Z,63.55
2023-02-14T20:50:17.963Z,63.33
2023-02-14T20:55:22.232Z,63.76
2023-02-14T21:00:25.735Z,63.64
2023-02-14T21:05:28.810Z,63.50
2023-02-14T21:10:33.039Z,63.55
2023-02-14T21:15:35.877Z,63.83
2023-02-14T21:20:38.785Z,64.05
2023-02-14T21:25:42.962Z,64.33
2023-02-14T21:30:45.862Z,65.25
2023-02-14T21:35:48.756Z,65.74
2023-02-14T21:41:01.310Z,65.88
2023-02-14T21:51:34.482Z,65.96
2023-02-14T21:56:39.849Z,66.18
2023-02-14T22:01:43.436Z,66.08
2023-02-14T22:06:47.189Z,66.66
2023-02-14T22:11:51.317Z,66.37
2023-02-14T22:16:54.035Z,66.23
2023-02-14T22:21:56.779Z,66.22
2023-02-14T22:27:00.974Z,66.31
2023-02-14T22:32:03.908Z,66.33
2023-02-14T22:37:07.110Z,66.43
2023-02-14T22:42:11.226Z,66.49
2023-02-14T22:47:13.999Z,66.85
2023-02-14T22:52:17.586Z,66.49
2023-02-14T22:57:21.731Z,66.50
2023-02-14T23:02:24.533Z,66.51
2023-02-14T23:07:27.333Z,66.40
2023-02-14T23:12:48.988Z,66.38
2023-02-14T23:18:09.494Z,66.88
2023-02-14T23:23:12.216Z,67.20
2023-02-14T23:28:16.380Z,67.34
2023-02-14T23:33:19.475Z,67.47
2023-02-14T23:38:22.509Z,67.50
2023-02-14T23:43:26.756Z,67.71
2023-02-14T23:48:29.781Z,68.27
2023-02-14T23:53:32.534Z,68.17
2023-02-14T23:58:36.642Z,68.19
